Time;durP1;ratioP1;P1;durP2;ratioP2;P2;SDS_P1;SDS_P2;PMS_P1;PMS_P2;Temp;Humidity;BMP_temperature;BMP_pressure;BME280_temperature;BME280_humidity;BME280_pressure;Samples;Min_cycle;Max_cycle;Signal;HPM_P1;HPM_P2
2024/02/08 00:01:22;;;;;;;6.07;5.47;;;10.90;63.70;;;;;;4628130;30;20137;-84
2024/02/08 00:03:50;;;;;;;7.30;6.35;;;10.90;63.70;;;;;;4615562;30;20055;-85
2024/02/08 00:06:16;;;;;;;9.32;6.45;;;10.90;63.70;;;;;;4621918;30;20126;-85
2024/02/08 00:08:42;;;;;;;7.07;5.57;;;10.90;63.70;;;;;;4624692;30;20051;-86
2024/02/08 00:11:08;;;;;;;10.18;6.20;;;10.90;63.80;;;;;;4634384;30;20130;-84
2024/02/08 00:13:34;;;;;;;9.25;6.82;;;10.90;63.80;;;;;;4630864;30;20432;-86
2024/02/08 00:16:00;;;;;;;8.75;6.93;;;10.90;63.80;;;;;;4633238;30;20074;-86
2024/02/08 00:18:27;;;;;;;10.38;6.50;;;10.80;63.70;;;;;;4634064;30;20041;-87
2024/02/08 00:20:52;;;;;;;7.68;6.18;;;10.90;63.90;;;;;;4618393;30;20106;-86
2024/02/08 00:23:18;;;;;;;7.97;6.88;;;10.80;63.70;;;;;;4632580;30;20141;-85
2024/02/08 00:25:50;;;;;;;6.47;5.82;;;10.80;64.20;;;;;;4630731;30;20043;-86
2024/02/08 00:28:20;;;;;;;8.07;6.00;;;10.80;63.70;;;;;;4636615;30;20039;-86
2024/02/08 00:30:46;;;;;;;7.63;6.68;;;10.80;63.70;;;;;;4623432;30;20063;-87
2024/02/08 00:33:12;;;;;;;7.22;6.20;;;10.80;63.70;;;;;;4622256;30;20102;-86
2024/02/08 00:35:38;;;;;;;10.75;6.78;;;10.80;63.70;;;;;;4630573;30;20437;-91
2024/02/08 00:38:04;;;;;;;8.15;6.40;;;10.80;63.70;;;;;;4631451;30;20035;-85
2024/02/08 00:40:30;;;;;;;8.73;6.28;;;10.80;63.70;;;;;;4619221;30;20035;-88
2024/02/08 00:42:56;;;;;;;7.63;6.75;;;10.80;63.70;;;;;;4633406;30;20174;-83
2024/02/08 00:45:22;;;;;;;8.45;6.85;;;10.70;63.60;;;;;;4622183;30;20508;-87
2024/02/08 00:47:54;;;;;;;7.90;6.78;;;10.80;63.80;;;;;;4620682;30;20166;-88
2024/02/08 00:50:21;;;;;;;10.93;7.85;;;10.70;63.60;;;;;;4611795;30;20531;-88
2024/02/08 00:52:47;;;;;;;8.43;7.10;;;10.70;63.60;;;;;;4635738;30;20748;-88
2024/02/08 00:55:17;;;;;;;8.80;7.40;;;10.70;63.60;;;;;;4632267;30;20145;-88
2024/02/08 00:57:43;;;;;;;10.20;7.53;;;10.70;63.60;;;;;;4635156;30;20074;-88
2024/02/08 01:00:10;;;;;;;10.70;7.43;;;10.70;63.60;;;;;;4625202;30;20102;-87
2024/02/08 01:02:35;;;;;;;11.43;7.35;;;10.70;63.60;;;;;;4635304;30;20154;-87
2024/02/08 01:05:01;;;;;;;11.30;7.40;;;10.70;63.60;;;;;;4620879;30;20134;-87
2024/02/08 01:07:31;;;;;;;11.15;7.72;;;10.70;63.70;;;;;;4634871;30;20045;-86
2024/02/08 01:10:01;;;;;;;8.70;7.57;;;10.70;63.70;;;;;;4640471;30;20316;-86
2024/02/08 01:12:27;;;;;;;9.80;8.35;;;10.70;63.70;;;;;;4638094;30;20047;-89
2024/02/08 01:14:53;;;;;;;8.93;7.85;;;10.70;63.70;;;;;;4638519;30;20046;-87
2024/02/08 01:17:20;;;;;;;9.75;7.97;;;10.70;63.70;;;;;;4635155;30;20043;-87
2024/02/08 01:19:47;;;;;;;10.90;7.90;;;10.60;63.50;;;;;;4624951;30;20105;-88
2024/02/08 01:22:19;;;;;;;11.40;8.57;;;10.60;63.50;;;;;;4639019;30;20027;-87
2024/02/08 01:24:49;;;;;;;9.20;8.25;;;10.60;63.50;;;;;;4637923;30;20067;-89
2024/02/08 01:27:20;;;;;;;11.63;9.32;;;10.70;63.70;;;;;;4640525;30;20134;-87
2024/02/08 01:29:47;;;;;;;10.82;8.60;;;10.60;63.50;;;;;;4622947;30;20098;-87
2024/02/08 01:32:15;;;;;;;10.93;8.32;;;10.60;63.50;;;;;;4621483;30;20063;-87
2024/02/08 01:34:45;;;;;;;12.48;9.45;;;10.60;63.50;;;;;;4637652;30;20039;-90
2024/02/08 01:37:15;;;;;;;11.98;9.02;;;10.60;63.50;;;;;;4628654;30;20129;-89
2024/02/08 01:39:43;;;;;;;12.20;10.05;;;10.60;63.50;;;;;;4621409;30;20038;-88
2024/02/08 01:42:13;;;;;;;11.00;8.40;;;10.60;63.50;;;;;;4637390;30;20103;-84
2024/02/08 01:45:07;;;;;;;15.75;10.00;;;10.60;63.50;;;;;;4634826;30;20093;-88
2024/02/08 01:47:32;;;;;;;11.20;9.55;;;10.60;63.60;;;;;;4628966;30;20046;-88
2024/02/08 01:49:59;;;;;;;14.25;10.60;;;10.50;63.40;;;;;;4637539;30;20043;-88
2024/02/08 01:52:25;;;;;;;12.57;10.30;;;10.50;63.40;;;;;;4635846;30;20061;-85
2024/02/08 01:54:53;;;;;;;14.75;10.25;;;10.50;63.50;;;;;;4634006;30;20043;-83
2024/02/08 01:57:18;;;;;;;16.23;11.98;;;10.50;63.50;;;;;;4634157;30;20046;-86
2024/02/08 01:59:52;;;;;;;14.70;10.70;;;10.50;63.50;;;;;;4624702;30;20298;-87
2024/02/08 02:02:21;;;;;;;12.15;10.82;;;10.50;63.50;;;;;;4635459;30;20122;-88
2024/02/08 02:04:47;;;;;;;11.98;10.27;;;10.50;63.60;;;;;;4624318;30;20051;-87
2024/02/08 02:07:13;;;;;;;13.95;11.60;;;10.50;63.60;;;;;;4640673;30;20477;-88
2024/02/08 02:09:40;;;;;;;13.77;11.90;;;10.50;63.60;;;;;;4620172;30;20134;-89
2024/02/08 02:12:16;;;;;;;14.00;10.52;;;10.40;63.40;;;;;;4640452;30;20109;-87
2024/02/08 02:14:44;;;;;;;17.55;11.88;;;10.50;63.60;;;;;;4639615;30;20053;-88
2024/02/08 02:17:16;;;;;;;13.95;12.30;;;10.40;63.40;;;;;;4636592;30;20138;-89
2024/02/08 02:19:47;;;;;;;14.90;11.80;;;10.40;63.50;;;;;;4620175;30;20043;-87
2024/02/08 02:22:16;;;;;;;14.63;11.77;;;10.40;63.50;;;;;;4626195;30;20093;-86
2024/02/08 02:24:42;;;;;;;13.98;11.95;;;10.40;63.50;;;;;;4634457;30;20039;-86
2024/02/08 02:27:12;;;;;;;16.58;12.23;;;10.40;63.60;;;;;;4625745;30;20126;-86
2024/02/08 02:29:39;;;;;;;13.48;12.10;;;10.40;63.60;;;;;;4650865;30;20054;-85
2024/02/08 02:32:07;;;;;;;14.20;12.57;;;10.40;63.60;;;;;;4650720;30;20307;-84
2024/02/08 02:34:36;;;;;;;14.85;12.07;;;10.40;63.60;;;;;;4637001;30;20047;-84
2024/02/08 02:37:02;;;;;;;15.85;12.13;;;10.40;63.70;;;;;;4638979;30;20142;-85
2024/02/08 02:39:31;;;;;;;15.63;12.48;;;10.30;63.50;;;;;;4649065;30;20039;-84
2024/02/08 02:41:59;;;;;;;15.02;12.27;;;10.30;63.50;;;;;;4644582;30;20043;-85
2024/02/08 02:44:28;;;;;;;15.00;12.32;;;10.30;63.60;;;;;;4633666;30;20420;-85
2024/02/08 02:46:56;;;;;;;14.15;12.35;;;10.30;63.60;;;;;;4636520;30;20102;-84
2024/02/08 02:49:23;;;;;;;14.35;11.35;;;10.30;63.70;;;;;;4621597;30;20047;-86
2024/02/08 02:51:50;;;;;;;13.27;11.52;;;10.30;63.70;;;;;;4633156;30;20045;-84
2024/02/08 02:54:16;;;;;;;13.63;11.82;;;10.20;63.50;;;;;;4634292;30;20075;-84
2024/02/08 02:56:47;;;;;;;12.70;11.35;;;10.30;63.70;;;;;;4632174;30;20039;-84
2024/02/08 02:59:16;;;;;;;13.35;11.52;;;10.30;63.70;;;;;;4635282;30;20039;-85
2024/02/08 03:01:47;;;;;;;12.85;11.35;;;10.30;63.80;;;;;;4635065;30;20046;-87
2024/02/08 03:04:15;;;;;;;13.73;11.68;;;10.20;63.60;;;;;;4633142;30;20054;-85
2024/02/08 03:06:42;;;;;;;12.77;11.43;;;10.20;63.70;;;;;;4635885;30;20062;-84
2024/02/08 03:09:15;;;;;;;12.40;11.18;;;10.20;63.70;;;;;;4632826;30;20258;-86
2024/02/08 03:11:43;;;;;;;13.00;11.70;;;10.20;63.70;;;;;;4633455;30;20239;-85
2024/02/08 03:14:10;;;;;;;12.85;10.93;;;10.20;63.70;;;;;;4634971;30;20512;-87
2024/02/08 03:16:37;;;;;;;12.40;10.57;;;10.20;63.70;;;;;;4632674;30;20035;-84
2024/02/08 03:19:06;;;;;;;11.73;10.57;;;10.20;64.30;;;;;;4634714;30;20591;-86
2024/02/08 03:21:40;;;;;;;11.15;9.95;;;10.20;63.80;;;;;;4633115;30;20588;-83
2024/02/08 03:24:09;;;;;;;11.35;10.20;;;10.20;63.80;;;;;;4629772;30;20299;-84
2024/02/08 03:26:45;;;;;;;10.52;9.50;;;10.20;63.80;;;;;;4632622;30;20043;-84
2024/02/08 03:29:11;;;;;;;11.88;10.10;;;10.20;63.90;;;;;;4630172;30;20280;-81
2024/02/08 03:31:45;;;;;;;11.27;10.20;;;10.20;63.90;;;;;;4633121;30;20323;-82
2024/02/08 03:34:19;;;;;;;;;;;10.20;64.00;;;;;;4634461;30;20087;-82
2024/02/08 03:36:49;;;;;;;13.20;9.88;;;10.20;63.90;;;;;;4633977;30;20417;-81
2024/02/08 03:39:27;;;;;;;10.75;9.60;;;10.20;63.90;;;;;;4629879;30;20053;-82
2024/02/08 03:41:58;;;;;;;10.23;9.13;;;10.20;63.90;;;;;;4639003;30;20043;-80
2024/02/08 03:44:25;;;;;;;9.30;8.40;;;10.20;64.00;;;;;;4621734;30;20477;-84
2024/02/08 03:46:52;;;;;;;10.65;9.63;;;10.10;63.80;;;;;;4631160;30;20157;-83
2024/02/08 03:49:19;;;;;;;9.88;8.88;;;10.10;63.90;;;;;;4609017;30;20141;-85
2024/02/08 03:51:47;;;;;;;9.23;8.32;;;10.10;64.00;;;;;;4619954;30;20030;-87
2024/02/08 03:54:16;;;;;;;8.63;7.70;;;10.10;64.00;;;;;;4623509;30;20365;-85
2024/02/08 03:56:45;;;;;;;8.52;7.68;;;10.10;64.00;;;;;;4633731;30;20043;-86
2024/02/08 03:59:12;;;;;;;7.78;7.07;;;10.10;64.00;;;;;;4619233;30;20073;-85
2024/02/08 04:01:42;;;;;;;7.88;7.07;;;10.10;64.10;;;;;;4632806;30;20093;-87
2024/02/08 04:04:13;;;;;;;7.95;7.15;;;10.10;64.10;;;;;;4609062;30;20050;-86
2024/02/08 04:07:01;;;;;;;7.88;7.07;;;10.10;64.10;;;;;;4634228;30;20156;-86
2024/02/08 04:09:36;;;;;;;7.53;6.82;;;10.10;64.10;;;;;;4621271;30;20462;-89
2024/02/08 04:56:08;;;;;;;4.07;3.38;;;10.10;64.40;;;;;;4639440;30;20066;-85
2024/02/08 04:58:40;;;;;;;3.53;3.22;;;10.10;64.40;;;;;;4631083;30;20539;-87
2024/02/08 05:01:10;;;;;;;3.60;3.30;;;10.10;64.50;;;;;;4634667;30;20125;-85
2024/02/08 05:03:38;;;;;;;3.20;2.90;;;10.10;64.50;;;;;;4628467;30;20101;-84
2024/02/08 05:06:14;;;;;;;4.60;3.60;;;10.10;64.50;;;;;;4639312;30;20401;-84
2024/02/08 05:08:42;;;;;;;3.13;2.83;;;10.10;64.60;;;;;;4634475;30;20050;-85
2024/02/08 05:11:10;;;;;;;2.88;2.67;;;10.10;64.50;;;;;;4621724;30;20167;-85
2024/02/08 05:13:40;;;;;;;3.05;2.85;;;10.10;64.60;;;;;;4621831;30;20046;-84
2024/02/08 05:16:14;;;;;;;2.85;2.65;;;10.10;64.60;;;;;;4629475;30;20115;-84
2024/02/08 05:18:49;;;;;;;2.85;2.65;;;10.10;64.70;;;;;;4624540;30;20039;-86
2024/02/08 05:21:16;;;;;;;2.72;2.53;;;10.10;64.70;;;;;;4635226;30;20032;-85
2024/02/08 05:23:43;;;;;;;2.47;2.28;;;10.10;64.70;;;;;;4638821;30;20059;-84
2024/02/08 05:26:19;;;;;;;2.95;2.70;;;10.10;64.70;;;;;;4635797;30;20561;-85
2024/02/08 05:28:45;;;;;;;2.55;2.35;;;10.10;64.80;;;;;;4637130;30;20043;-85
2024/02/08 05:31:12;;;;;;;2.00;1.80;;;10.10;64.80;;;;;;4637956;30;20051;-84
2024/02/08 05:33:43;;;;;;;2.17;2.00;;;10.10;64.80;;;;;;4635085;30;20066;-84
2024/02/08 05:36:12;;;;;;;2.13;1.92;;;10.10;64.90;;;;;;4637855;30;20106;-84
2024/02/08 05:38:42;;;;;;;2.42;2.22;;;10.10;64.90;;;;;;4637497;30;20558;-84
2024/02/08 05:41:15;;;;;;;2.05;1.85;;;10.10;65.00;;;;;;4619339;30;20032;-88
2024/02/08 05:43:44;;;;;;;1.70;1.60;;;10.10;65.00;;;;;;4633442;30;20089;-87
2024/02/08 05:46:28;;;;;;;2.25;2.05;;;10.10;65.10;;;;;;4638694;30;20038;-88
2024/02/08 05:49:04;;;;;;;2.10;1.90;;;10.10;65.10;;;;;;4636472;30;20042;-88
2024/02/08 05:51:35;;;;;;;1.75;1.65;;;10.10;65.10;;;;;;4641931;30;20048;-91
2024/02/08 05:54:06;;;;;;;1.50;1.40;;;10.10;65.10;;;;;;4620697;30;20480;-89
2024/02/08 05:56:39;;;;;;;1.95;1.52;;;10.20;65.40;;;;;;4639721;30;20057;-89
2024/02/08 05:59:08;;;;;;;;;;;10.20;65.40;;;;;;4637060;30;20046;-86
2024/02/08 06:01:46;;;;;;;1.70;1.60;;;10.20;65.40;;;;;;4637200;30;20007;-88
2024/02/08 06:04:22;;;;;;;1.40;1.30;;;10.10;65.10;;;;;;4640288;30;20051;-85
2024/02/08 06:06:58;;;;;;;1.30;1.20;;;10.20;65.30;;;;;;4621756;30;20270;-85
2024/02/08 06:12:10;;;;;;;2.20;1.40;;;10.20;65.30;;;;;;4632009;30;20489;-85
2024/02/08 06:14:39;;;;;;;1.50;1.40;;;10.20;65.40;;;;;;4638183;30;20064;-84
2024/02/08 06:17:11;;;;;;;1.73;1.23;;;10.20;65.50;;;;;;4639484;30;20035;-86
2024/02/08 06:19:50;;;;;;;1.03;1.03;;;10.20;65.50;;;;;;4638609;30;20393;-89
2024/02/08 06:22:20;;;;;;;1.63;1.50;;;10.20;65.50;;;;;;4620550;30;20281;-82
2024/02/08 06:24:49;;;;;;;1.42;1.33;;;10.20;65.50;;;;;;4620898;30;20047;-85
2024/02/08 06:27:15;;;;;;;1.27;0.95;;;10.20;65.60;;;;;;4622986;30;20054;-85
2024/02/08 06:29:49;;;;;;;0.85;0.85;;;10.20;65.60;;;;;;4639725;30;20504;-85
2024/02/08 06:35:09;;;;;;;6.43;1.30;;;10.20;65.70;;;;;;4641263;30;20050;-83
2024/02/08 06:37:56;;;;;;;1.27;1.17;;;10.20;66.00;;;;;;4647901;30;20184;-81
2024/02/08 06:40:24;;;;;;;1.00;0.90;;;10.30;66.20;;;;;;4637832;30;20101;-81
2024/02/08 06:45:48;;;;;;;2.33;1.30;;;10.40;66.60;;;;;;4650011;30;20299;-80
2024/02/08 06:48:35;;;;;;;1.33;1.02;;;10.50;66.90;;;;;;4638002;30;20425;-79
2024/02/08 07:37:46;;;;;;;22.15;6.80;;;10.80;69.20;;;;;;4632358;30;20322;-79
2024/02/08 07:40:23;;;;;;;21.00;6.20;;;10.80;69.20;;;;;;4619392;30;20114;-81
2024/02/08 07:45:47;;;;;;;17.85;5.60;;;10.70;69.10;;;;;;4633778;30;20432;-80
2024/02/08 07:48:27;;;;;;;16.48;5.00;;;10.60;68.90;;;;;;4637958;30;20042;-81
2024/02/08 07:50:53;;;;;;;18.98;6.40;;;10.60;68.90;;;;;;4630602;30;20038;-80
2024/02/08 07:53:35;;;;;;;15.65;4.97;;;10.60;68.90;;;;;;4642704;30;20149;-80
2024/02/08 07:58:56;;;;;;;12.25;3.53;;;10.50;68.60;;;;;;4636147;30;20039;-79
2024/02/08 08:01:30;;;;;;;13.38;3.97;;;10.50;68.60;;;;;;4628018;30;20051;-78
2024/02/08 08:03:56;;;;;;;10.70;3.58;;;10.50;68.70;;;;;;4624615;30;20059;-81
2024/02/08 08:06:23;;;;;;;11.95;4.10;;;10.50;68.60;;;;;;4621815;30;20042;-81
2024/02/08 08:08:57;;;;;;;10.57;3.80;;;10.50;68.60;;;;;;4635720;30;20326;-80
2024/02/08 08:11:30;;;;;;;10.90;3.95;;;10.50;68.60;;;;;;4638894;30;20435;-79
2024/02/08 08:14:09;;;;;;;8.65;3.17;;;10.40;68.40;;;;;;4621243;30;20520;-80
2024/02/08 08:17:07;;;;;;;10.57;2.90;;;10.50;68.50;;;;;;4622573;30;20053;-81
2024/02/08 08:19:38;;;;;;;8.23;2.78;;;10.40;68.30;;;;;;4622094;30;20046;-81
2024/02/08 08:22:18;;;;;;;6.97;2.47;;;10.40;68.20;;;;;;4625081;30;20126;-81
2024/02/08 08:27:47;;;;;;;5.78;2.28;;;10.40;68.10;;;;;;4660578;30;20086;-81
2024/02/08 08:30:28;;;;;;;5.57;2.42;;;10.40;68.10;;;;;;4660863;30;20045;-79
2024/02/08 08:40:47;;;;;;;3.78;1.88;;;10.40;67.90;;;;;;4644927;30;20068;-82
2024/02/08 08:43:19;;;;;;;3.75;1.92;;;10.40;67.80;;;;;;4633508;30;20317;-81
2024/02/08 08:45:50;;;;;;;4.18;1.70;;;10.40;67.80;;;;;;4643714;30;20158;-82
2024/02/08 08:48:19;;;;;;;3.20;1.50;;;10.40;67.70;;;;;;4650855;30;20085;-82
2024/02/08 08:50:55;;;;;;;3.45;1.40;;;10.40;67.60;;;;;;4655059;30;20050;-81
2024/02/08 08:53:28;;;;;;;2.88;1.35;;;10.40;67.60;;;;;;4651976;30;20027;-81
2024/02/08 08:55:55;;;;;;;3.03;1.08;;;10.40;67.60;;;;;;4625779;30;20287;-84
2024/02/08 08:58:28;;;;;;;2.42;1.30;;;10.30;67.30;;;;;;4630974;30;20145;-82
2024/02/08 09:01:11;;;;;;;2.35;1.27;;;10.40;67.50;;;;;;4639950;30;20341;-82
2024/02/08 09:03:40;;;;;;;2.60;1.05;;;10.40;67.40;;;;;;4633258;30;20050;-82
2024/02/08 09:06:12;;;;;;;1.65;1.10;;;10.40;67.40;;;;;;4621958;30;20048;-82
2024/02/08 09:08:55;;;;;;;2.97;1.08;;;10.40;67.30;;;;;;4622082;30;20046;-83
2024/02/08 09:11:24;;;;;;;2.35;1.40;;;10.40;67.30;;;;;;4621336;30;20043;-82
2024/02/08 09:13:54;;;;;;;2.33;1.10;;;10.30;67.10;;;;;;4619735;30;20047;-82
2024/02/08 09:21:33;;;;;;;1.60;0.80;;;10.40;67.20;;;;;;4620758;30;20262;-79
2024/02/08 09:24:04;;;;;;;1.15;0.90;;;10.40;67.10;;;;;;4636286;30;20130;-80
2024/02/08 09:29:26;;;;;;;2.72;0.90;;;10.40;67.00;;;;;;4635310;30;20329;-80
2024/02/08 09:31:57;;;;;;;0.82;0.57;;;10.40;66.90;;;;;;4625491;30;20071;-79
2024/02/08 09:34:37;;;;;;;1.10;0.73;;;10.40;66.90;;;;;;4624784;30;20043;-80
2024/02/08 09:37:07;;;;;;;1.13;0.63;;;10.40;67.00;;;;;;4637942;30;20039;-80
2024/02/08 09:42:37;;;;;;;0.77;0.63;;;10.50;67.40;;;;;;4635287;30;20047;-81
2024/02/08 09:45:18;;;;;;;0.57;0.50;;;10.60;67.70;;;;;;4633402;30;20416;-80
2024/02/08 09:47:51;;;;;;;1.08;0.60;;;10.60;67.70;;;;;;4619416;30;20083;-80
2024/02/08 09:50:35;;;;;;;1.25;0.70;;;10.80;68.10;;;;;;4620439;30;20043;-79
2024/02/08 09:53:27;;;;;;;1.42;0.63;;;10.80;68.20;;;;;;4619870;30;20373;-79
2024/02/08 09:56:25;;;;;;;0.50;0.50;;;11.00;68.40;;;;;;4636210;30;20495;-80
2024/02/08 09:59:03;;;;;;;1.27;0.65;;;11.10;68.50;;;;;;4634104;30;20198;-81
2024/02/08 10:01:35;;;;;;;8.23;0.80;;;11.20;68.40;;;;;;4637068;30;20397;-82
2024/02/08 10:04:05;;;;;;;1.73;0.82;;;11.40;68.60;;;;;;4636790;30;20680;-80
2024/02/08 10:06:39;;;;;;;0.65;0.63;;;11.50;68.70;;;;;;4621421;30;20585;-81
2024/02/08 10:09:33;;;;;;;0.70;0.40;;;11.70;69.00;;;;;;4635252;30;20484;-81
2024/02/08 10:12:06;;;;;;;0.90;0.40;;;11.80;69.00;;;;;;4634608;30;20485;-81
2024/02/08 10:14:36;;;;;;;0.70;0.40;;;12.00;69.10;;;;;;4621266;30;20035;-81
2024/02/08 10:17:18;;;;;;;1.42;0.65;;;12.10;69.10;;;;;;4641461;30;20046;-82
2024/02/08 10:23:00;;;;;;;1.35;0.60;;;12.40;69.20;;;;;;4637896;30;20051;-78
2024/02/08 10:28:21;;;;;;;2.53;0.40;;;12.70;69.10;;;;;;4647546;30;20050;-80
2024/02/08 10:31:05;;;;;;;0.82;0.60;;;12.80;69.10;;;;;;4617041;30;20524;-81
2024/02/08 10:33:38;;;;;;;0.55;0.50;;;12.90;69.20;;;;;;4629699;30;20807;-80
2024/02/08 10:36:15;;;;;;;1.05;0.70;;;12.90;69.10;;;;;;4630593;30;20509;-79
2024/02/08 10:38:56;;;;;;;0.85;0.50;;;13.00;69.20;;;;;;4616794;30;20047;-80
2024/02/08 10:41:28;;;;;;;1.50;1.40;;;13.00;69.20;;;;;;4636284;30;20066;-80
2024/02/08 10:43:59;;;;;;;0.45;0.35;;;13.10;69.30;;;;;;4616342;30;20050;-82
2024/02/08 10:46:31;;;;;;;0.60;0.50;;;13.20;69.40;;;;;;4633251;30;20105;-81
2024/02/08 10:49:01;;;;;;;;;;;13.30;69.50;;;;;;4640823;30;20067;-81
2024/02/08 10:51:31;;;;;;;0.90;0.50;;;13.30;69.30;;;;;;4636029;30;20364;-81
2024/02/08 10:54:08;;;;;;;0.77;0.57;;;13.40;69.30;;;;;;4637018;30;20118;-79
2024/02/08 10:56:45;;;;;;;1.85;0.68;;;13.40;69.30;;;;;;4634861;30;20050;-78
2024/02/08 10:59:38;;;;;;;1.00;0.50;;;13.50;69.50;;;;;;4636809;30;20043;-82
2024/02/08 11:02:08;;;;;;;0.65;0.60;;;13.50;69.40;;;;;;4635775;30;20130;-81
2024/02/08 11:04:41;;;;;;;0.60;0.40;;;13.60;69.60;;;;;;4634799;30;20054;-79
2024/02/08 11:07:23;;;;;;;1.20;0.57;;;13.60;69.50;;;;;;4632502;30;20101;-79
2024/02/08 11:09:52;;;;;;;0.73;0.65;;;13.70;69.60;;;;;;4634582;30;20077;-79
2024/02/08 11:12:29;;;;;;;1.17;0.40;;;13.70;69.50;;;;;;4619285;30;20053;-78
2024/02/08 11:15:19;;;;;;;0.70;0.45;;;13.70;69.50;;;;;;4632592;30;20381;-82
2024/02/08 11:17:52;;;;;;;0.98;0.63;;;13.80;69.70;;;;;;4619625;30;20343;-79
2024/02/08 11:23:25;;;;;;;0.60;0.50;;;13.90;69.80;;;;;;4624765;30;20103;-80
2024/02/08 11:25:56;;;;;;;1.30;0.50;;;14.00;69.80;;;;;;4630039;30;20147;-81
2024/02/08 11:28:28;;;;;;;1.92;0.82;;;14.10;69.90;;;;;;4637667;30;20400;-82
2024/02/08 11:30:55;;;;;;;1.88;0.85;;;14.20;69.70;;;;;;4634970;30;20609;-82
2024/02/08 11:33:32;;;;;;;0.70;0.65;;;14.30;69.70;;;;;;4636140;30;20107;-80
2024/02/08 11:36:11;;;;;;;0.90;0.50;;;14.50;69.80;;;;;;4646105;30;20503;-84
2024/02/08 11:38:46;;;;;;;0.50;0.50;;;14.50;69.50;;;;;;4654008;30;20042;-84
2024/02/08 11:41:20;;;;;;;2.83;0.80;;;14.60;69.60;;;;;;4640704;30;20073;-87
2024/02/08 11:44:02;;;;;;;1.05;0.60;;;14.70;69.70;;;;;;4637928;30;20552;-86
2024/02/08 11:46:37;;;;;;;1.20;0.80;;;14.70;69.80;;;;;;4639242;30;20062;-85
2024/02/08 11:49:14;;;;;;;4.78;1.95;;;14.80;69.90;;;;;;4639287;30;20756;-86
2024/02/08 11:51:48;;;;;;;1.50;0.60;;;14.90;70.00;;;;;;4631782;30;20107;-89
2024/02/08 11:54:30;;;;;;;3.20;0.93;;;15.00;70.00;;;;;;4638765;30;20097;-87
2024/02/08 11:57:03;;;;;;;1.40;0.95;;;15.00;70.00;;;;;;4634752;30;20354;-88
2024/02/08 11:59:29;;;;;;;;;;;15.10;69.90;;;;;;4640355;30;20047;-86
2024/02/08 12:01:58;;;;;;;0.88;0.63;;;15.20;69.80;;;;;;4635663;30;19943;-84
2024/02/08 12:04:26;;;;;;;4.10;0.93;;;15.30;69.80;;;;;;4622665;30;20583;-83
2024/02/08 12:07:07;;;;;;;1.88;1.10;;;15.40;69.80;;;;;;4630609;30;20040;-84
2024/02/08 12:09:36;;;;;;;1.77;0.75;;;15.50;70.00;;;;;;4622110;30;20050;-84
2024/02/08 12:12:07;;;;;;;1.75;0.93;;;15.60;70.10;;;;;;4620267;30;20261;-83
2024/02/08 12:14:39;;;;;;;2.00;1.20;;;15.70;70.10;;;;;;4617918;30;20043;-84
2024/02/08 12:17:06;;;;;;;1.45;0.90;;;15.70;69.90;;;;;;4621505;30;20065;-82
2024/02/08 12:19:44;;;;;;;2.47;1.20;;;15.90;70.10;;;;;;4621903;30;20983;-84
2024/02/08 12:22:14;;;;;;;2.35;1.35;;;15.90;69.90;;;;;;4619549;30;20035;-84
2024/02/08 12:24:59;;;;;;;1.20;1.10;;;16.00;70.00;;;;;;4633137;30;20154;-83
2024/02/08 12:27:28;;;;;;;2.10;1.00;;;16.10;70.00;;;;;;4636570;30;20281;-87
2024/02/08 12:29:56;;;;;;;4.30;1.40;;;16.20;70.10;;;;;;4633670;30;20050;-84
2024/02/08 12:32:27;;;;;;;1.33;1.10;;;16.30;70.10;;;;;;4619744;30;20476;-85
2024/02/08 12:34:57;;;;;;;0.95;0.77;;;16.40;70.10;;;;;;4638480;30;20511;-85
2024/02/08 12:37:29;;;;;;;1.08;0.60;;;16.50;70.10;;;;;;4637116;30;20038;-85
2024/02/08 12:40:11;;;;;;;0.80;0.73;;;16.70;70.10;;;;;;4624732;30;20054;-84
2024/02/08 12:42:39;;;;;;;1.83;0.60;;;16.90;69.90;;;;;;4620633;30;20043;-85
2024/02/08 12:45:10;;;;;;;1.58;0.88;;;17.10;70.20;;;;;;4620228;30;20109;-87
2024/02/08 12:47:39;;;;;;;1.98;0.82;;;17.30;69.50;;;;;;4622856;30;20027;-86
2024/02/08 12:50:09;;;;;;;1.38;0.70;;;17.50;69.30;;;;;;4621943;30;20213;-87
2024/02/08 12:52:40;;;;;;;0.88;0.60;;;17.60;69.00;;;;;;4638761;30;20051;-87
2024/02/08 12:55:09;;;;;;;2.90;0.60;;;17.80;68.90;;;;;;4620809;30;20469;-86
2024/02/08 12:57:39;;;;;;;0.45;0.45;;;17.90;68.60;;;;;;4626861;30;20364;-86
2024/02/08 13:00:08;;;;;;;1.10;0.55;;;18.00;68.60;;;;;;4638871;30;20485;-87
2024/02/08 13:02:34;;;;;;;1.33;0.70;;;18.10;68.70;;;;;;4641612;30;20047;-86
2024/02/08 13:05:03;;;;;;;0.70;0.60;;;18.20;68.20;;;;;;4623954;30;20207;-88
2024/02/08 13:07:29;;;;;;;1.85;0.40;;;18.10;67.80;;;;;;4625919;30;20103;-87
2024/02/08 13:10:14;;;;;;;1.77;0.60;;;18.10;67.80;;;;;;4632867;30;20139;-88
2024/02/08 13:12:40;;;;;;;1.00;0.60;;;18.10;67.80;;;;;;4626354;30;20035;-90
2024/02/08 13:15:07;;;;;;;1.23;0.70;;;18.10;67.80;;;;;;4641480;30;20102;-90
2024/02/08 13:17:37;;;;;;;1.60;0.75;;;18.00;67.60;;;;;;4642156;30;20051;-86
2024/02/08 13:20:11;;;;;;;0.77;0.65;;;18.10;67.60;;;;;;4620524;30;20035;-87
2024/02/08 13:22:47;;;;;;;0.90;0.70;;;18.20;67.60;;;;;;4638239;30;20460;-87
2024/02/08 13:25:14;;;;;;;0.47;0.43;;;18.20;67.40;;;;;;4635910;30;20470;-87
2024/02/08 13:27:40;;;;;;;1.60;0.90;;;18.30;67.40;;;;;;4617601;30;20031;-87
2024/02/08 13:30:15;;;;;;;0.88;0.63;;;18.30;67.30;;;;;;4624158;30;20077;-85
2024/02/08 13:32:51;;;;;;;0.57;0.55;;;18.30;67.20;;;;;;4634017;30;20077;-90
2024/02/08 13:35:19;;;;;;;0.65;0.65;;;18.30;67.10;;;;;;4639781;30;20069;-85
2024/02/08 13:37:53;;;;;;;0.50;0.40;;;18.30;67.00;;;;;;4635324;30;20069;-84
2024/02/08 13:40:24;;;;;;;0.75;0.57;;;18.30;66.80;;;;;;4624029;30;20039;-87
2024/02/08 13:43:01;;;;;;;2.38;0.70;;;18.40;66.90;;;;;;4631087;30;20129;-85
2024/02/08 13:45:36;;;;;;;0.82;0.63;;;18.40;66.70;;;;;;4634277;30;20149;-88
2024/02/08 13:48:06;;;;;;;0.40;0.40;;;18.40;66.60;;;;;;4635644;30;20572;-87
2024/02/08 13:50:46;;;;;;;0.90;0.55;;;18.40;66.40;;;;;;4622277;30;20472;-85
2024/02/08 13:53:16;;;;;;;1.55;0.52;;;18.50;66.50;;;;;;4632615;30;20222;-85
2024/02/08 13:55:46;;;;;;;0.70;0.43;;;18.50;66.40;;;;;;4638999;30;20211;-85
2024/02/08 13:58:13;;;;;;;2.78;0.70;;;18.50;66.40;;;;;;4647056;30;20098;-85
2024/02/08 14:00:41;;;;;;;0.88;0.50;;;18.40;66.10;;;;;;4642687;30;20065;-83
2024/02/08 14:03:08;;;;;;;0.55;0.50;;;18.50;66.20;;;;;;4634976;30;20564;-84
2024/02/08 14:05:39;;;;;;;0.65;0.65;;;18.40;65.90;;;;;;4637068;30;20547;-83
2024/02/08 14:08:09;;;;;;;0.50;0.50;;;18.40;65.90;;;;;;4643440;30;20043;-84
2024/02/08 14:10:38;;;;;;;1.05;0.50;;;18.40;65.80;;;;;;4636847;30;20476;-84
2024/02/08 14:13:09;;;;;;;1.83;0.70;;;18.40;65.70;;;;;;4649353;30;20273;-85
2024/02/08 14:15:47;;;;;;;0.75;0.40;;;18.40;65.70;;;;;;4656636;30;20119;-86
2024/02/08 14:18:23;;;;;;;0.95;0.70;;;18.40;65.60;;;;;;4656673;30;20075;-83
2024/02/08 14:20:56;;;;;;;0.35;0.35;;;18.40;65.60;;;;;;4650187;30;20043;-84
2024/02/08 14:23:40;;;;;;;0.82;0.60;;;18.40;65.50;;;;;;4644469;30;20046;-82
2024/02/08 14:28:42;;;;;;;0.85;0.60;;;18.40;65.50;;;;;;4654794;30;20065;-83
2024/02/08 14:31:09;;;;;;;2.40;0.60;;;18.40;65.40;;;;;;4642815;30;20124;-82
2024/02/08 14:33:36;;;;;;;0.40;0.40;;;18.40;65.40;;;;;;4644151;30;20080;-83
2024/02/08 14:36:09;;;;;;;1.67;0.95;;;18.40;65.40;;;;;;4631534;30;20038;-82
2024/02/08 14:38:37;;;;;;;1.80;0.65;;;18.40;65.30;;;;;;4624181;30;20116;-81
2024/02/08 14:41:05;;;;;;;1.38;0.40;;;18.50;65.30;;;;;;4633168;30;20038;-82
2024/02/08 14:43:33;;;;;;;0.77;0.47;;;18.50;65.20;;;;;;4653585;30;20130;-82
2024/02/08 14:46:03;;;;;;;1.58;0.82;;;18.60;65.30;;;;;;4652508;30;20467;-82
2024/02/08 14:48:37;;;;;;;1.58;0.55;;;18.50;65.00;;;;;;4628352;30;20042;-83
2024/02/08 14:53:58;;;;;;;0.70;0.60;;;18.60;65.00;;;;;;4634101;30;20105;-82
2024/02/08 14:56:25;;;;;;;1.73;0.95;;;18.60;64.90;;;;;;4634025;30;20141;-83
2024/02/08 14:58:56;;;;;;;1.08;0.47;;;18.70;65.10;;;;;;4616791;30;20042;-83
2024/02/08 15:01:52;;;;;;;1.50;0.73;;;18.70;65.00;;;;;;4618803;30;20035;-83
2024/02/08 15:04:17;;;;;;;0.98;0.80;;;18.70;64.90;;;;;;4616928;30;20070;-82
2024/02/08 15:07:06;;;;;;;1.02;0.65;;;18.70;64.90;;;;;;4635978;30;20034;-83
2024/02/08 15:12:22;;;;;;;1.33;0.60;;;18.70;64.80;;;;;;4634059;30;20038;-84
2024/02/08 15:14:48;;;;;;;0.70;0.40;;;18.60;64.70;;;;;;4623360;30;20255;-84
2024/02/08 15:17:23;;;;;;;0.80;0.70;;;18.60;64.70;;;;;;4638085;30;20042;-84
2024/02/08 15:19:53;;;;;;;0.52;0.47;;;18.60;64.70;;;;;;4620135;30;20034;-83
2024/02/08 15:25:04;;;;;;;1.55;0.40;;;18.60;64.90;;;;;;4635830;30;20585;-83
2024/02/08 15:27:39;;;;;;;1.73;1.33;;;18.50;64.80;;;;;;4623747;30;20043;-83
2024/02/08 15:30:14;;;;;;;1.63;0.70;;;18.50;65.00;;;;;;4616084;30;20051;-84
2024/02/08 15:32:55;;;;;;;3.60;0.57;;;18.40;64.90;;;;;;4621114;30;20059;-84